Time;durP1;ratioP1;P1;durP2;ratioP2;P2;SDS_P1;SDS_P2;PMS_P1;PMS_P2;Temp;Humidity;BMP_temperature;BMP_pressure;BME280_temperature;BME280_humidity;BME280_pressure;Samples;Min_cycle;Max_cycle;Signal;HPM_P1;HPM_P2
2023/05/08 00:01:05;;;;;;;6.05;4.28;;;;;;;-145.69;100.00;52426.56;5053409;28;20204;-75
2023/05/08 00:03:31;;;;;;;7.70;4.20;;;;;;;-145.69;100.00;52448.34;5059190;28;20790;-75
2023/05/08 00:05:58;;;;;;;6.28;3.85;;;;;;;-145.69;100.00;52440.44;5072373;28;20248;-76
2023/05/08 00:08:24;;;;;;;10.35;3.88;;;;;;;-145.69;100.00;52452.31;5072765;28;20210;-76
2023/05/08 00:10:52;;;;;;;4.57;3.40;;;;;;;-145.69;100.00;52458.25;5073146;28;20203;-76
2023/05/08 00:13:18;;;;;;;5.00;3.70;;;;;;;-145.69;100.00;52440.44;5068405;28;20206;-76
2023/05/08 00:15:45;;;;;;;6.53;4.35;;;;;;;-145.69;100.00;52456.28;5053215;28;20195;-76
2023/05/08 00:18:13;;;;;;;8.15;4.82;;;;;;;-145.69;100.00;52456.28;5053131;28;20225;-76
2023/05/08 00:20:43;;;;;;;8.07;4.47;;;;;;;-145.69;100.00;52440.44;5053256;28;20203;-75
2023/05/08 00:23:09;;;;;;;5.38;3.80;;;;;;;-145.69;100.00;52448.34;5056692;28;20222;-76
2023/05/08 00:25:36;;;;;;;5.32;3.70;;;;;;;-145.69;100.00;52468.16;5053001;28;20669;-76
2023/05/08 00:28:03;;;;;;;3.85;3.42;;;;;;;-145.69;100.00;52515.69;5052894;28;20658;-76
2023/05/08 00:30:30;;;;;;;4.55;3.70;;;;;;;-145.69;100.00;52440.44;5052848;28;20200;-76
2023/05/08 00:32:56;;;;;;;4.63;3.60;;;;;;;-145.69;100.00;52464.19;5068277;28;20195;-76
2023/05/08 00:35:23;;;;;;;6.60;4.55;;;;;;;-145.69;100.00;52440.44;5072921;28;20221;-75
2023/05/08 00:37:50;;;;;;;6.00;4.30;;;;;;;-145.69;100.00;52454.28;5072553;28;20236;-77
2023/05/08 00:40:18;;;;;;;8.05;4.95;;;;;;;-145.69;100.00;52444.38;5072996;28;20209;-76
2023/05/08 00:42:44;;;;;;;11.02;5.88;;;;;;;-145.69;100.00;52484.00;5058330;28;20206;-76
2023/05/08 00:45:12;;;;;;;10.60;5.38;;;;;;;-145.69;100.00;52456.28;5053044;28;20199;-76
2023/05/08 00:47:42;;;;;;;11.60;5.20;;;;;;;-145.69;100.00;52464.19;5052569;28;20314;-76
2023/05/08 00:50:10;;;;;;;10.00;4.72;;;;;;;-145.69;100.00;52478.06;5052715;28;20199;-76
2023/05/08 00:52:37;;;;;;;5.63;3.75;;;;;;;-145.69;100.00;52450.31;5065573;28;20264;-76
2023/05/08 00:55:05;;;;;;;10.98;4.82;;;;;;;-145.69;100.00;52456.28;5071709;28;20661;-76
2023/05/08 00:57:34;;;;;;;8.70;5.03;;;;;;;-145.69;100.00;52456.28;5072986;28;20317;-76
2023/05/08 01:00:06;;;;;;;10.48;5.60;;;;;;;-145.69;100.00;52480.03;5072406;28;20730;-76
2023/05/08 01:02:35;;;;;;;10.10;6.10;;;;;;;-145.69;100.00;52472.13;5060416;28;20200;-76
2023/05/08 01:05:03;;;;;;;8.57;5.90;;;;;;;-145.69;100.00;52432.50;5052686;28;20231;-76
2023/05/08 01:07:29;;;;;;;7.95;5.28;;;;;;;-145.69;100.00;52454.28;5052471;28;20207;-75
2023/05/08 01:09:56;;;;;;;11.75;6.18;;;;;;;-145.69;100.00;52440.44;5052587;28;20211;-76
2023/05/08 01:12:33;;;;;;;8.15;5.68;;;;;;;-145.69;100.00;52454.28;5062518;28;20195;-76
2023/05/08 01:15:10;;;;;;;12.50;5.88;;;;;;;-145.69;100.00;52432.50;5072789;28;20280;-76
2023/05/08 01:17:49;;;;;;;9.73;5.38;;;;;;;-145.69;100.00;52464.19;5072170;28;20230;-75
2023/05/08 01:20:28;;;;;;;9.27;5.85;;;;;;;-145.69;100.00;52466.16;5072503;28;20553;-76
2023/05/08 01:23:35;;;;;;;9.10;5.85;;;;;;;-145.69;100.00;52460.22;5057993;28;20230;-76
2023/05/08 01:26:34;;;;;;;7.88;5.20;;;;;;;-145.69;100.00;52472.13;5052686;28;20252;-76
2023/05/08 01:29:36;;;;;;;7.75;5.10;;;;;;;-145.69;100.00;52440.44;5052172;28;20203;-76
2023/05/08 01:32:20;;;;;;;10.07;4.55;;;;;;;-145.69;100.00;52464.19;5045884;28;20202;-76
2023/05/08 01:34:57;;;;;;;9.38;5.30;;;;;;;-145.69;100.00;52480.03;5048114;28;20203;-76
2023/05/08 01:37:30;;;;;;;7.65;5.63;;;;;;;-145.69;100.00;52468.16;5066218;28;20219;-76
2023/05/08 01:40:07;;;;;;;7.35;4.97;;;;;;;-145.69;100.00;52460.22;5053622;28;20211;-75
2023/05/08 01:42:44;;;;;;;8.10;4.90;;;;;;;-145.69;100.00;52474.09;5052341;28;20195;-76
2023/05/08 01:45:18;;;;;;;7.20;4.63;;;;;;;-145.69;100.00;52448.34;5053219;28;20562;-75
2023/05/08 01:47:55;;;;;;;8.40;5.30;;;;;;;-145.69;100.00;52474.09;5062974;28;20194;-75
2023/05/08 01:50:30;;;;;;;9.38;4.90;;;;;;;-145.69;100.00;52452.31;5064273;28;20199;-75
2023/05/08 01:53:04;;;;;;;9.10;4.57;;;;;;;-145.69;100.00;52422.59;5055666;28;20218;-76
2023/05/08 01:55:35;;;;;;;7.85;5.13;;;;;;;-145.69;100.00;52462.22;5055867;28;20210;-76
2023/05/08 01:58:07;;;;;;;6.28;4.57;;;;;;;-145.69;100.00;52460.22;5067480;28;20712;-75
2023/05/08 02:00:33;;;;;;;7.32;4.93;;;;;;;-145.69;100.00;52430.53;5074338;28;20650;-75
2023/05/08 02:03:05;;;;;;;10.88;6.57;;;;;;;-145.69;100.00;52440.44;5075352;28;20920;-75
2023/05/08 02:05:34;;;;;;;12.00;5.53;;;;;;;-145.69;100.00;52460.22;5075638;28;20252;-76
2023/05/08 02:08:02;;;;;;;12.90;5.50;;;;;;;-145.69;100.00;52442.41;5075552;28;20199;-76
2023/05/08 02:10:30;;;;;;;9.35;6.13;;;;;;;-145.69;100.00;52444.38;5059962;28;20191;-75
2023/05/08 02:13:01;;;;;;;12.63;6.35;;;;;;;-145.69;100.00;52436.47;5055622;28;20295;-75
2023/05/08 02:18:54;;;;;;;7.30;5.05;;;;;;;-145.69;100.00;52464.19;5072072;28;20230;-76
2023/05/08 02:21:22;;;;;;;8.50;5.40;;;;;;;-145.69;100.00;52448.34;5066263;28;20217;-76
2023/05/08 02:23:49;;;;;;;6.72;5.05;;;;;;;-145.69;100.00;52452.31;5075632;28;20203;-76
2023/05/08 02:26:16;;;;;;;6.05;4.15;;;;;;;-145.69;100.00;52482.00;5075217;28;20238;-76
2023/05/08 02:28:44;;;;;;;6.72;4.55;;;;;;;-145.69;100.00;52482.00;5075338;28;20202;-76
2023/05/08 02:31:14;;;;;;;7.65;4.50;;;;;;;-145.69;100.00;52456.28;5057412;28;20692;-75
2023/05/08 02:33:43;;;;;;;8.00;4.72;;;;;;;-145.69;100.00;52458.25;5055237;28;20228;-75
2023/05/08 02:36:18;;;;;;;7.20;4.78;;;;;;;-145.69;100.00;52458.25;5055629;28;20207;-75
2023/05/08 02:38:48;;;;;;;5.65;4.13;;;;;;;-145.69;100.00;52454.28;5055131;28;20231;-75
2023/05/08 02:41:17;;;;;;;13.02;5.70;;;;;;;-145.69;100.00;52456.28;5071168;28;20202;-75
2023/05/08 02:43:45;;;;;;;8.43;5.22;;;;;;;-145.69;100.00;52448.34;5074671;28;20207;-75
2023/05/08 02:46:15;;;;;;;6.05;4.72;;;;;;;-145.69;100.00;52460.22;5074838;28;20234;-75
2023/05/08 02:48:51;;;;;;;5.95;4.40;;;;;;;-145.69;100.00;52444.38;5075119;28;20289;-75
2023/05/08 02:51:26;;;;;;;9.45;5.65;;;;;;;-145.69;100.00;52440.44;5063446;28;20202;-75
2023/05/08 02:53:59;;;;;;;8.85;5.88;;;;;;;-145.69;100.00;52452.31;5054519;28;20680;-75
2023/05/08 02:56:34;;;;;;;7.15;5.05;;;;;;;-145.69;100.00;52468.16;5054253;28;20222;-75
2023/05/08 02:59:13;;;;;;;6.75;4.57;;;;;;;-145.69;100.00;52456.28;5054808;28;20243;-75
2023/05/08 03:01:46;;;;;;;11.07;6.15;;;;;;;-145.69;100.00;52480.03;5055221;28;20199;-75
2023/05/08 03:04:22;;;;;;;10.73;6.88;;;;;;;-145.69;100.00;52478.06;5041188;28;20191;-75
2023/05/08 03:06:52;;;;;;;34.25;5.68;;;;;;;-145.69;100.00;52428.53;5054444;28;20281;-76
2023/05/08 03:09:21;;;;;;;6.78;4.93;;;;;;;-145.69;100.00;52476.06;5058244;28;20191;-75
2023/05/08 03:11:53;;;;;;;7.55;5.15;;;;;;;-145.69;100.00;52476.06;5073600;28;20203;-75
2023/05/08 03:14:28;;;;;;;11.75;5.50;;;;;;;-145.69;100.00;52428.53;5054549;28;20199;-75
2023/05/08 03:16:57;;;;;;;7.82;5.07;;;;;;;-145.69;100.00;52476.06;5054386;28;20198;-75
2023/05/08 03:19:27;;;;;;;9.48;5.47;;;;;;;-145.69;100.00;52480.03;5054166;28;20278;-75
2023/05/08 03:21:57;;;;;;;7.85;5.93;;;;;;;-145.69;100.00;52476.06;5054280;28;20448;-75
2023/05/08 03:24:27;;;;;;;8.50;6.00;;;;;;;-145.69;100.00;52468.16;5074148;28;20199;-75
2023/05/08 03:26:56;;;;;;;10.18;5.47;;;;;;;-145.69;100.00;52480.03;5074076;28;20198;-75
2023/05/08 03:29:27;;;;;;;9.93;5.65;;;;;;;-145.69;100.00;52487.97;5073580;28;20202;-75
2023/05/08 03:31:57;;;;;;;11.43;6.10;;;;;;;-145.69;100.00;52464.19;5068168;28;20188;-75
2023/05/08 03:34:25;;;;;;;8.00;5.78;;;;;;;-145.69;100.00;52448.34;5054105;28;20273;-75
2023/05/08 03:36:52;;;;;;;9.77;6.53;;;;;;;-145.69;100.00;52468.16;5054057;28;20570;-75
2023/05/08 03:39:20;;;;;;;13.85;7.00;;;;;;;-145.69;100.00;52436.47;5068906;28;20226;-75
2023/05/08 03:41:48;;;;;;;10.75;6.85;;;;;;;-145.69;100.00;52464.19;5037012;28;20671;-75
2023/05/08 03:44:16;;;;;;;11.05;7.13;;;;;;;-145.69;100.00;52452.31;5072984;28;20206;-75
2023/05/08 03:46:44;;;;;;;10.75;7.03;;;;;;;-145.69;100.00;52464.19;5073479;28;20231;-75
2023/05/08 03:49:12;;;;;;;12.88;7.20;;;;;;;-145.69;100.00;52484.00;5073312;28;20291;-75
2023/05/08 03:51:39;;;;;;;13.82;8.15;;;;;;;-145.69;100.00;52468.16;5073716;28;20669;-75
2023/05/08 03:54:05;;;;;;;18.15;8.00;;;;;;;-145.69;100.00;52462.22;5055278;28;20199;-76
2023/05/08 03:56:36;;;;;;;10.75;7.50;;;;;;;-145.69;100.00;52476.06;5053298;28;20198;-75
2023/05/08 03:59:14;;;;;;;11.13;8.02;;;;;;;-145.69;100.00;52446.38;5053444;28;20317;-75
2023/05/08 04:01:47;;;;;;;10.82;7.47;;;;;;;-145.69;100.00;52458.25;5053561;28;20702;-75
2023/05/08 04:04:23;;;;;;;10.45;7.47;;;;;;;-145.69;100.00;52458.25;5072065;28;20199;-75
2023/05/08 04:06:56;;;;;;;12.45;7.28;;;;;;;-145.69;100.00;52460.22;5072536;28;20617;-75
2023/05/08 04:09:31;;;;;;;10.60;6.95;;;;;;;-145.69;100.00;52440.44;5071397;28;20198;-75
2023/05/08 04:12:03;;;;;;;11.80;6.72;;;;;;;-145.69;100.00;52474.09;5072473;28;20204;-75
2023/05/08 04:14:37;;;;;;;8.60;6.40;;;;;;;-145.69;100.00;52470.13;5053412;28;20210;-76
2023/05/08 04:17:08;;;;;;;7.80;5.72;;;;;;;-145.69;100.00;52472.13;5057796;28;20198;-75
2023/05/08 04:19:39;;;;;;;11.55;6.20;;;;;;;-145.69;100.00;52470.13;5069091;28;20223;-75
2023/05/08 04:22:07;;;;;;;11.02;6.10;;;;;;;-145.69;100.00;52472.13;5066112;28;20649;-75
2023/05/08 04:24:39;;;;;;;9.35;5.70;;;;;;;-145.69;100.00;52436.47;5071604;28;20205;-75
2023/05/08 04:27:09;;;;;;;7.95;5.53;;;;;;;-145.69;100.00;52458.25;5052119;28;20650;-76
2023/05/08 04:29:36;;;;;;;10.43;5.90;;;;;;;-145.69;100.00;52489.94;5053179;28;20214;-76
2023/05/08 04:32:05;;;;;;;13.55;6.28;;;;;;;-145.69;100.00;52450.31;5053144;28;20719;-75
2023/05/08 04:34:32;;;;;;;8.32;5.93;;;;;;;-145.69;100.00;52480.03;5064937;28;20191;-75
2023/05/08 04:36:58;;;;;;;11.77;6.55;;;;;;;-145.69;100.00;52434.47;5052601;28;20669;-75
2023/05/08 04:39:25;;;;;;;7.57;5.28;;;;;;;-145.69;100.00;52480.03;5052744;28;20582;-75
2023/05/08 04:41:54;;;;;;;7.93;5.28;;;;;;;-145.69;100.00;52464.19;5052727;28;20203;-75
2023/05/08 04:44:22;;;;;;;8.38;5.68;;;;;;;-145.69;100.00;52472.13;5065744;28;20708;-75
2023/05/08 04:46:49;;;;;;;8.77;5.93;;;;;;;-145.69;100.00;52462.22;5052679;28;20232;-75
2023/05/08 04:49:16;;;;;;;11.60;6.18;;;;;;;-145.69;100.00;52440.44;5052655;28;20527;-76
2023/05/08 04:51:42;;;;;;;7.30;5.20;;;;;;;-145.69;100.00;52452.31;5051998;28;20212;-76
2023/05/08 04:54:08;;;;;;;9.30;5.38;;;;;;;-145.69;100.00;52448.34;5068870;28;20237;-76
2023/05/08 04:56:38;;;;;;;9.25;5.50;;;;;;;-145.69;100.00;52460.22;5052654;28;20199;-75
2023/05/08 04:59:07;;;;;;;9.45;5.78;;;;;;;-145.69;100.00;52460.22;5052579;28;20238;-76
2023/05/08 05:01:35;;;;;;;9.32;5.35;;;;;;;-145.69;100.00;52487.97;5052956;28;20206;-76
2023/05/08 05:04:01;;;;;;;10.00;4.88;;;;;;;-145.69;100.00;52466.16;5053466;28;20534;-76
2023/05/08 05:06:30;;;;;;;6.95;5.03;;;;;;;-145.69;100.00;52444.38;5052846;28;20196;-75
2023/05/08 05:08:56;;;;;;;10.90;4.88;;;;;;;-145.69;100.00;52458.25;5052251;28;20254;-75
2023/05/08 05:11:22;;;;;;;6.43;4.47;;;;;;;-145.69;100.00;52454.28;5052606;28;20214;-75
2023/05/08 05:13:49;;;;;;;7.20;4.90;;;;;;;-145.69;100.00;52444.38;5066518;28;20191;-75
2023/05/08 05:16:16;;;;;;;6.97;4.20;;;;;;;-145.69;100.00;52444.38;5072888;28;20553;-75
2023/05/08 05:18:43;;;;;;;7.10;4.40;;;;;;;-145.69;100.00;52458.25;5072211;28;20628;-76
2023/05/08 05:21:10;;;;;;;8.15;4.72;;;;;;;-145.69;100.00;52484.00;5076464;28;20202;-75
2023/05/08 05:23:37;;;;;;;5.93;3.60;;;;;;;-145.69;100.00;52450.31;5066541;28;20199;-75
2023/05/08 05:26:03;;;;;;;5.63;3.88;;;;;;;-145.69;100.00;52452.31;5076523;28;20202;-75
2023/05/08 05:28:30;;;;;;;5.47;4.00;;;;;;;-145.69;100.00;52432.50;5075986;28;20228;-75
2023/05/08 05:30:56;;;;;;;5.25;3.55;;;;;;;-145.69;100.00;52472.13;5076481;28;20198;-75
2023/05/08 05:33:23;;;;;;;3.97;3.40;;;;;;;-145.69;100.00;52462.22;5065017;28;20210;-75
2023/05/08 05:35:51;;;;;;;8.20;3.28;;;;;;;-145.69;100.00;52424.59;5055622;28;20677;-76
2023/05/08 05:38:17;;;;;;;6.88;3.55;;;;;;;-145.69;100.00;52480.03;5055923;28;20219;-75
2023/05/08 05:40:44;;;;;;;6.78;4.30;;;;;;;-145.69;100.00;52448.34;5057099;28;20245;-76
2023/05/08 05:43:12;;;;;;;7.57;3.65;;;;;;;-145.69;100.00;52440.44;5075997;28;20209;-75
2023/05/08 05:45:38;;;;;;;7.13;3.45;;;;;;;-145.69;100.00;52416.66;5057172;28;20227;-75
2023/05/08 05:48:06;;;;;;;5.32;3.75;;;;;;;-145.69;100.00;52452.31;5056259;28;20295;-75
2023/05/08 05:50:32;;;;;;;4.38;3.33;;;;;;;-145.69;100.00;52438.44;5049520;28;20706;-76
2023/05/08 05:53:00;;;;;;;4.82;2.97;;;;;;;-145.69;100.00;52456.28;5056014;28;20200;-75
2023/05/08 05:55:27;;;;;;;4.15;2.95;;;;;;;-145.69;100.00;52452.31;5070395;28;20191;-75
2023/05/08 05:57:53;;;;;;;5.43;3.00;;;;;;;-145.69;100.00;52484.00;5075878;28;20202;-76
2023/05/08 06:00:21;;;;;;;4.10;3.20;;;;;;;-145.69;100.00;52472.13;5076078;28;20202;-75
2023/05/08 06:02:47;;;;;;;4.93;2.80;;;;;;;-145.69;100.00;52444.38;5057547;28;20227;-76
2023/05/08 06:05:14;;;;;;;4.65;2.92;;;;;;;-145.69;100.00;52444.38;5055897;28;20200;-75
2023/05/08 06:07:40;;;;;;;5.43;2.80;;;;;;;-145.69;100.00;52446.38;5072844;28;20218;-76
2023/05/08 06:10:09;;;;;;;4.32;3.00;;;;;;;-145.69;100.00;52440.44;5075459;28;20207;-76
2023/05/08 06:12:36;;;;;;;4.38;3.28;;;;;;;-145.69;100.00;52452.31;5059091;28;20740;-76
2023/05/08 06:15:02;;;;;;;6.15;3.60;;;;;;;-145.69;100.00;52438.44;5055835;28;20199;-76
2023/05/08 06:17:29;;;;;;;4.57;3.10;;;;;;;-145.69;100.00;52487.97;5055642;28;20203;-75
2023/05/08 06:19:55;;;;;;;6.20;3.63;;;;;;;-145.69;100.00;52448.34;5073755;28;20226;-76
2023/05/08 06:22:23;;;;;;;5.93;3.78;;;;;;;-145.69;100.00;52454.28;5073686;28;20665;-75
2023/05/08 06:24:52;;;;;;;4.32;3.33;;;;;;;-145.69;100.00;52454.28;5075241;28;20203;-76
2023/05/08 06:27:21;;;;;;;5.22;3.60;;;;;;;-145.69;100.00;52485.97;5075379;28;20253;-76
2023/05/08 06:29:49;;;;;;;7.13;3.83;;;;;;;-145.69;100.00;52468.16;5073184;28;20199;-76
2023/05/08 06:32:16;;;;;;;5.15;4.10;;;;;;;-145.69;100.00;52416.66;5060927;28;20202;-76
2023/05/08 06:34:42;;;;;;;6.60;3.85;;;;;;;-145.69;100.00;52454.28;5054893;28;20210;-76
2023/05/08 06:37:08;;;;;;;6.47;3.88;;;;;;;-145.69;100.00;52422.59;5055153;28;20210;-75
2023/05/08 06:39:35;;;;;;;7.68;4.70;;;;;;;-145.69;100.00;52478.06;5055077;28;20223;-76
2023/05/08 06:42:02;;;;;;;5.30;4.25;;;;;;;-145.69;100.00;52424.59;5059598;28;20365;-75
2023/05/08 06:44:33;;;;;;;6.18;3.60;;;;;;;-145.69;100.00;52460.22;5055190;28;20287;-76
2023/05/08 06:46:59;;;;;;;6.97;4.53;;;;;;;-145.69;100.00;52448.34;5054641;28;20293;-75
2023/05/08 06:49:26;;;;;;;5.80;3.72;;;;;;;-145.69;100.00;52434.47;5054707;28;20674;-75
2023/05/08 06:51:52;;;;;;;4.45;3.17;;;;;;;-145.69;100.00;52464.19;5058652;28;20550;-75
2023/05/08 06:54:19;;;;;;;5.80;3.83;;;;;;;-145.69;100.00;52458.25;5075021;28;20203;-75
2023/05/08 06:56:45;;;;;;;7.65;3.50;;;;;;;-145.69;100.00;52428.53;5074300;28;20202;-76
2023/05/08 06:59:12;;;;;;;7.57;3.85;;;;;;;-145.69;100.00;52476.06;5074871;28;20264;-76
2023/05/08 07:01:40;;;;;;;4.53;3.25;;;;;;;-145.69;100.00;52408.75;5071844;28;20665;-76
2023/05/08 07:04:08;;;;;;;8.73;3.67;;;;;;;-145.69;100.00;52446.38;5074655;28;20256;-75
2023/05/08 07:06:35;;;;;;;3.95;3.55;;;;;;;-145.69;100.00;52408.75;5074100;28;20565;-75
2023/05/08 07:09:02;;;;;;;5.47;3.72;;;;;;;-145.69;100.00;52446.38;5073559;28;20430;-75
2023/05/08 07:11:31;;;;;;;6.68;3.45;;;;;;;-145.69;100.00;52450.31;5071019;28;20535;-76
2023/05/08 07:13:59;;;;;;;5.97;3.50;;;;;;;-145.69;100.00;52408.75;5069522;28;20200;-76
2023/05/08 07:16:25;;;;;;;7.55;3.58;;;;;;;-145.69;100.00;52444.38;5053941;28;20204;-75
2023/05/08 07:18:53;;;;;;;4.10;3.13;;;;;;;-145.69;100.00;52418.63;5060611;28;20223;-75
2023/05/08 07:21:20;;;;;;;6.78;2.90;;;;;;;-145.69;100.00;52430.53;5067558;28;20199;-76
2023/05/08 07:23:46;;;;;;;4.22;2.90;;;;;;;-145.69;100.00;52454.28;5053700;28;20276;-77
2023/05/08 07:26:13;;;;;;;6.80;2.63;;;;;;;-145.69;100.00;52406.75;5054295;28;20273;-77
2023/05/08 07:28:39;;;;;;;3.97;3.08;;;;;;;-145.69;100.00;52402.78;5054430;28;20203;-76
2023/05/08 07:31:08;;;;;;;5.95;3.00;;;;;;;-145.69;100.00;52400.81;5056643;28;20206;-77
2023/05/08 07:33:34;;;;;;;4.10;3.35;;;;;;;-145.69;100.00;52428.53;5074106;28;20202;-77
2023/05/08 07:36:02;;;;;;;4.72;3.28;;;;;;;-145.69;100.00;52396.84;5074079;28;20229;-76
2023/05/08 07:38:29;;;;;;;4.85;2.70;;;;;;;-145.69;100.00;52398.84;5070003;28;20270;-78
2023/05/08 07:40:56;;;;;;;3.97;2.70;;;;;;;-145.69;100.00;52384.97;5054125;28;20286;-78
2023/05/08 07:43:23;;;;;;;3.08;2.78;;;;;;;-145.69;100.00;52390.91;5060921;28;20195;-78
2023/05/08 07:45:50;;;;;;;3.72;2.90;;;;;;;-145.69;100.00;52408.75;5073644;28;20301;-78
2023/05/08 07:48:17;;;;;;;5.00;2.38;;;;;;;-145.69;100.00;52392.91;5059193;28;20278;-77
2023/05/08 07:50:44;;;;;;;3.17;2.70;;;;;;;-145.69;100.00;52406.75;5051674;28;20200;-77
2023/05/08 07:53:12;;;;;;;6.60;2.72;;;;;;;-145.69;100.00;52404.78;5033390;28;20211;-76
2023/05/08 07:55:38;;;;;;;2.97;2.45;;;;;;;-145.69;100.00;52361.22;5041924;28;20558;-77
2023/05/08 07:58:05;;;;;;;5.13;2.30;;;;;;;-145.69;100.00;52406.75;5053761;28;20211;-76
2023/05/08 08:00:32;;;;;;;2.65;2.22;;;;;;;-145.69;100.00;52410.72;5053307;28;20227;-77
2023/05/08 08:02:58;;;;;;;4.28;2.65;;;;;;;-145.69;100.00;52410.72;5054655;28;20203;-76
2023/05/08 08:05:25;;;;;;;4.15;2.60;;;;;;;-145.69;100.00;52408.75;5055091;28;20203;-76
2023/05/08 08:07:54;;;;;;;2.63;2.38;;;;;;;-145.69;100.00;52384.97;5073418;28;20199;-77
2023/05/08 08:10:26;;;;;;;4.43;2.50;;;;;;;-145.69;100.00;52392.91;5073457;28;20199;-78
2023/05/08 08:12:52;;;;;;;4.63;2.35;;;;;;;-145.69;100.00;52392.91;5073496;28;20207;-79
2023/05/08 08:15:21;;;;;;;3.67;2.38;;;;;;;-145.69;100.00;52398.84;5055039;28;20562;-81
2023/05/08 08:17:48;;;;;;;4.55;2.65;;;;;;;-145.69;100.00;52369.13;5073657;28;20211;-81
2023/05/08 08:20:14;;;;;;;4.78;2.38;;;;;;;-145.69;100.00;52351.31;5073304;28;20230;-80
2023/05/08 08:22:41;;;;;;;4.03;2.65;;;;;;;-145.69;100.00;52383.00;5073358;28;20203;-78
2023/05/08 08:25:10;;;;;;;5.28;2.67;;;;;;;-145.69;100.00;52383.00;5072909;28;20203;-76
2023/05/08 08:27:38;;;;;;;5.75;2.95;;;;;;;-145.69;100.00;52404.78;5066699;28;20195;-78
2023/05/08 08:30:06;;;;;;;4.57;2.65;;;;;;;-145.69;100.00;52408.75;5053284;28;20249;-77
2023/05/08 08:32:33;;;;;;;3.63;2.78;;;;;;;-145.69;100.00;52392.91;5056776;28;20688;-77
2023/05/08 08:34:59;;;;;;;4.13;3.08;;;;;;;-145.69;100.00;52408.75;5063821;28;20206;-76
2023/05/08 08:37:26;;;;;;;7.30;3.25;;;;;;;-145.69;100.00;52390.91;5055582;28;20561;-77
2023/05/08 08:39:53;;;;;;;7.05;3.47;;;;;;;-145.69;100.00;52392.91;5072629;28;20231;-76
2023/05/08 08:42:19;;;;;;;4.32;3.20;;;;;;;-145.69;100.00;52373.09;5071294;28;20566;-76
2023/05/08 08:44:50;;;;;;;4.10;2.53;;;;;;;-145.69;100.00;52357.25;5053046;28;20277;-79
2023/05/08 08:47:19;;;;;;;4.38;2.90;;;;;;;-145.69;100.00;52345.38;5056212;28;20226;-78
2023/05/08 08:49:48;;;;;;;6.18;3.00;;;;;;;-145.69;100.00;52384.97;5072518;28;20202;-78
2023/05/08 08:52:27;;;;;;;5.07;3.25;;;;;;;-145.69;100.00;52365.16;5072426;28;20226;-78
2023/05/08 08:54:56;;;;;;;4.85;3.22;;;;;;;-145.69;100.00;52357.25;5052507;28;20195;-78
2023/05/08 08:57:24;;;;;;;6.85;4.15;;;;;;;-145.69;100.00;52416.66;5057091;28;20195;-80
2023/05/08 09:00:00;;;;;;;8.10;4.53;;;;;;;-145.69;100.00;52414.69;5051099;28;20249;-77
2023/05/08 09:02:29;;;;;;;8.00;4.82;;;;;;;-145.69;100.00;52414.69;5053631;28;20203;-76
2023/05/08 09:04:55;;;;;;;8.02;5.15;;;;;;;-145.69;100.00;52426.56;5072478;28;20198;-77
2023/05/08 09:07:23;;;;;;;7.40;5.18;;;;;;;-145.69;100.00;52446.38;5072816;28;20240;-77
2023/05/08 09:09:50;;;;;;;7.35;4.88;;;;;;;-145.69;100.00;52426.56;5065520;28;20282;-76
2023/05/08 09:12:16;;;;;;;9.32;5.68;;;;;;;-145.69;100.00;52404.78;5052165;28;20215;-80
2023/05/08 09:14:43;;;;;;;10.23;5.03;;;;;;;-145.69;100.00;52396.84;5071301;28;20232;-78
2023/05/08 09:17:11;;;;;;;7.65;5.07;;;;;;;-145.69;100.00;52412.69;5072648;28;20256;-80
2023/05/08 09:19:38;;;;;;;11.05;5.90;;;;;;;-145.69;100.00;52396.84;5072244;28;20244;-80
2023/05/08 09:22:05;;;;;;;8.18;4.97;;;;;;;-145.69;100.00;52396.84;5063193;28;20202;-81
2023/05/08 09:24:54;;;;;;;9.38;5.43;;;;;;;-145.69;100.00;52402.78;5058492;28;20191;-79
2023/05/08 09:27:22;;;;;;;11.82;6.32;;;;;;;-145.69;100.00;52400.81;5072328;28;20195;-77
2023/05/08 09:29:59;;;;;;;10.25;5.63;;;;;;;-145.69;100.00;52412.69;5072114;28;20543;-78
2023/05/08 09:32:27;;;;;;;9.02;4.72;;;;;;;-145.69;100.00;52345.38;5064457;28;20195;-78
2023/05/08 09:34:54;;;;;;;8.32;5.15;;;;;;;-145.69;100.00;52353.28;5058278;28;20200;-78
2023/05/08 09:37:21;;;;;;;7.80;4.88;;;;;;;-145.69;100.00;52390.91;5052375;28;20222;-78
2023/05/08 09:39:47;;;;;;;8.25;4.57;;;;;;;-145.69;100.00;52384.97;5051763;28;20223;-78
2023/05/08 09:42:14;;;;;;;6.85;4.50;;;;;;;-145.69;100.00;52408.75;5063051;28;20563;-77
2023/05/08 09:44:44;;;;;;;9.20;5.18;;;;;;;-145.69;100.00;52365.16;5072184;28;20248;-78
2023/05/08 09:47:12;;;;;;;6.53;4.75;;;;;;;-145.69;100.00;52379.03;5055454;28;20231;-77
2023/05/08 09:49:40;;;;;;;7.28;4.43;;;;;;;-145.69;100.00;52394.88;5052414;28;20205;-78
2023/05/08 09:52:17;;;;;;;6.20;4.40;;;;;;;-145.69;100.00;52335.47;5060693;28;20202;-78
2023/05/08 09:54:43;;;;;;;5.63;3.90;;;;;;;-145.69;100.00;52357.25;5072110;28;20661;-78
2023/05/08 09:57:15;;;;;;;8.55;3.45;;;;;;;-145.69;100.00;52359.22;5036638;28;20205;-78
2023/05/08 09:59:42;;;;;;;5.15;2.90;;;;;;;-145.69;100.00;52349.31;5072321;28;20329;-79
2023/05/08 10:02:15;;;;;;;7.32;3.30;;;;;;;-145.69;100.00;52301.81;5063878;28;20211;-79
2023/05/08 10:04:44;;;;;;;4.55;2.78;;;;;;;-145.69;100.00;52325.56;5047008;28;20657;-79
2023/05/08 10:07:11;;;;;;;3.13;2.40;;;;;;;-145.69;100.00;52325.56;5074326;28;20203;-79
2023/05/08 10:09:39;;;;;;;3.42;2.33;;;;;;;-145.69;100.00;52297.84;5074168;28;20226;-79
2023/05/08 10:12:06;;;;;;;3.30;2.25;;;;;;;-145.69;100.00;52325.56;5055784;28;20207;-79
2023/05/08 10:14:33;;;;;;;3.55;2.20;;;;;;;-145.69;100.00;52278.03;5060595;28;20202;-79
2023/05/08 10:17:07;;;;;;;3.00;1.63;;;;;;;-145.69;100.00;52301.81;5075291;28;20202;-78
2023/05/08 10:19:37;;;;;;;2.20;1.60;;;;;;;-145.69;100.00;52333.47;5074385;28;20685;-77
2023/05/08 10:22:11;;;;;;;5.57;1.48;;;;;;;-145.69;100.00;52337.44;5035627;28;20212;-77
2023/05/08 10:24:40;;;;;;;1.20;1.10;;;;;;;-145.69;100.00;52309.72;5034902;28;20204;-78
2023/05/08 10:27:17;;;;;;;0.90;0.85;;;;;;;-145.69;100.00;52351.31;5050969;28;20217;-78
2023/05/08 10:29:53;;;;;;;1.25;1.10;;;;;;;-145.69;100.00;52347.34;5072734;28;20241;-79
2023/05/08 10:32:20;;;;;;;1.33;1.23;;;;;;;-145.69;100.00;52329.53;5075009;28;20550;-79
2023/05/08 10:34:52;;;;;;;1.13;1.00;;;;;;;-145.69;100.00;52325.56;5075249;28;20289;-79
2023/05/08 10:37:20;;;;;;;0.90;0.90;;;;;;;-145.69;100.00;52343.38;5075272;28;20680;-79
2023/05/08 10:39:48;;;;;;;1.95;1.08;;;;;;;-145.69;100.00;52349.31;5071232;28;20218;-79
2023/05/08 10:42:14;;;;;;;1.63;0.68;;;;;;;-145.69;100.00;52365.16;5075432;28;20245;-78
2023/05/08 10:44:43;;;;;;;3.15;1.30;;;;;;;-145.69;100.00;52343.38;5061805;28;20196;-78
2023/05/08 10:47:19;;;;;;;1.52;1.40;;;;;;;-145.69;100.00;52371.13;5054990;28;20231;-78
2023/05/08 10:49:59;;;;;;;3.58;1.98;;;;;;;-145.69;100.00;52388.94;5069827;28;20259;-78
2023/05/08 10:52:34;;;;;;;1.67;1.58;;;;;;;-145.69;100.00;52388.94;5056900;28;20199;-78
2023/05/08 10:55:16;;;;;;;2.45;1.90;;;;;;;-145.69;100.00;52369.13;5054883;28;20195;-79
2023/05/08 10:58:02;;;;;;;3.78;1.65;;;;;;;-145.69;100.00;52390.91;5065291;28;20289;-79
2023/05/08 11:00:32;;;;;;;2.85;1.55;;;;;;;-145.69;100.00;52424.59;5068200;28;20226;-79
2023/05/08 11:03:05;;;;;;;3.10;1.30;;;;;;;-145.69;100.00;52357.25;5061492;28;20195;-79
2023/05/08 11:05:45;;;;;;;1.60;1.48;;;;;;;-145.69;100.00;52363.19;5075012;28;20207;-79
2023/05/08 11:08:23;;;;;;;1.42;1.17;;;;;;;-145.69;100.00;52396.84;5060081;28;20947;-79
2023/05/08 11:11:00;;;;;;;3.95;1.60;;;;;;;-145.69;100.00;52383.00;5054758;28;20210;-79
2023/05/08 11:13:28;;;;;;;1.67;1.45;;;;;;;-145.69;100.00;52414.69;5064433;28;20199;-79
2023/05/08 11:15:55;;;;;;;3.42;1.58;;;;;;;-145.69;100.00;52404.78;5065617;28;20195;-79
2023/05/08 11:18:23;;;;;;;4.90;1.27;;;;;;;-145.69;100.00;52404.78;5054073;28;20199;-79
2023/05/08 11:20:57;;;;;;;4.40;2.10;;;;;;;-145.69;100.00;52394.88;5054453;28;20227;-79